sensor_id;sensor_type;location;lat;lon;timestamp;P1;durP1;ratioP1;P2;durP2;ratioP2
76194;SDS011;64964;48.694;21.206;2023-08-12T00:02:13;4.10;;;2.40;;
76194;SDS011;64964;48.694;21.206;2023-08-12T00:04:38;5.70;;;2.70;;
76194;SDS011;64964;48.694;21.206;2023-08-12T00:07:03;3.85;;;2.33;;
76194;SDS011;64964;48.694;21.206;2023-08-12T00:09:29;3.93;;;2.60;;
76194;SDS011;64964;48.694;21.206;2023-08-12T00:11:54;5.57;;;2.37;;
76194;SDS011;64964;48.694;21.206;2023-08-12T00:14:19;3.97;;;2.63;;
76194;SDS011;64964;48.694;21.206;2023-08-12T00:16:45;3.37;;;2.60;;
76194;SDS011;64964;48.694;21.206;2023-08-12T00:19:10;5.53;;;2.38;;
76194;SDS011;64964;48.694;21.206;2023-08-12T00:21:36;3.20;;;2.30;;
76194;SDS011;64964;48.694;21.206;2023-08-12T00:24:01;3.00;;;2.40;;
76194;SDS011;64964;48.694;21.206;2023-08-12T00:26:26;3.67;;;2.43;;
76194;SDS011;64964;48.694;21.206;2023-08-12T00:28:52;4.25;;;3.15;;
76194;SDS011;64964;48.694;21.206;2023-08-12T00:31:17;3.57;;;2.33;;
76194;SDS011;64964;48.694;21.206;2023-08-12T00:33:43;4.28;;;2.70;;
76194;SDS011;64964;48.694;21.206;2023-08-12T00:36:09;3.47;;;2.53;;
76194;SDS011;64964;48.694;21.206;2023-08-12T00:38:34;3.90;;;2.90;;
76194;SDS011;64964;48.694;21.206;2023-08-12T00:41:00;3.47;;;2.70;;
76194;SDS011;64964;48.694;21.206;2023-08-12T00:43:25;3.10;;;2.63;;
76194;SDS011;64964;48.694;21.206;2023-08-12T00:45:50;4.20;;;2.60;;
76194;SDS011;64964;48.694;21.206;2023-08-12T00:48:16;2.97;;;2.60;;
76194;SDS011;64964;48.694;21.206;2023-08-12T00:50:42;2.88;;;2.50;;
76194;SDS011;64964;48.694;21.206;2023-08-12T00:53:08;3.97;;;2.40;;
76194;SDS011;64964;48.694;21.206;2023-08-12T00:55:35;2.90;;;2.30;;
76194;SDS011;64964;48.694;21.206;2023-08-12T00:58:01;3.17;;;2.65;;
76194;SDS011;64964;48.694;21.206;2023-08-12T01:00:27;3.47;;;2.50;;
76194;SDS011;64964;48.694;21.206;2023-08-12T01:02:53;3.13;;;2.50;;
76194;SDS011;64964;48.694;21.206;2023-08-12T01:05:20;5.47;;;2.75;;
76194;SDS011;64964;48.694;21.206;2023-08-12T01:07:45;3.93;;;2.73;;
76194;SDS011;64964;48.694;21.206;2023-08-12T01:10:12;4.28;;;2.55;;
76194;SDS011;64964;48.694;21.206;2023-08-12T01:15:22;4.15;;;2.47;;
76194;SDS011;64964;48.694;21.206;2023-08-12T01:17:50;4.82;;;2.40;;
76194;SDS011;64964;48.694;21.206;2023-08-12T01:20:19;6.03;;;2.80;;
76194;SDS011;64964;48.694;21.206;2023-08-12T01:25:36;4.40;;;2.50;;
76194;SDS011;64964;48.694;21.206;2023-08-12T01:28:01;3.57;;;2.60;;
76194;SDS011;64964;48.694;21.206;2023-08-12T01:30:26;3.10;;;2.60;;
76194;SDS011;64964;48.694;21.206;2023-08-12T01:35:35;3.15;;;2.60;;
76194;SDS011;64964;48.694;21.206;2023-08-12T01:38:05;3.03;;;2.70;;
76194;SDS011;64964;48.694;21.206;2023-08-12T01:40:33;3.75;;;2.47;;
76194;SDS011;64964;48.694;21.206;2023-08-12T01:43:01;3.83;;;2.90;;
76194;SDS011;64964;48.694;21.206;2023-08-12T01:45:30;4.03;;;2.88;;
76194;SDS011;64964;48.694;21.206;2023-08-12T01:47:57;3.47;;;2.42;;
76194;SDS011;64964;48.694;21.206;2023-08-12T01:50:22;6.57;;;2.53;;
76194;SDS011;64964;48.694;21.206;2023-08-12T01:52:48;4.70;;;2.75;;
76194;SDS011;64964;48.694;21.206;2023-08-12T01:55:13;3.30;;;2.80;;
76194;SDS011;64964;48.694;21.206;2023-08-12T01:57:38;3.83;;;2.73;;
76194;SDS011;64964;48.694;21.206;2023-08-12T02:00:04;4.35;;;2.45;;
76194;SDS011;64964;48.694;21.206;2023-08-12T02:02:31;3.40;;;2.60;;
76194;SDS011;64964;48.694;21.206;2023-08-12T02:04:56;3.83;;;2.40;;
76194;SDS011;64964;48.694;21.206;2023-08-12T02:07:22;3.23;;;2.40;;
76194;SDS011;64964;48.694;21.206;2023-08-12T02:09:47;3.67;;;2.93;;
76194;SDS011;64964;48.694;21.206;2023-08-12T02:12:12;4.10;;;2.70;;
76194;SDS011;64964;48.694;21.206;2023-08-12T02:14:38;3.77;;;2.70;;
76194;SDS011;64964;48.694;21.206;2023-08-12T02:17:03;4.55;;;2.70;;
76194;SDS011;64964;48.694;21.206;2023-08-12T02:19:34;5.47;;;2.60;;
76194;SDS011;64964;48.694;21.206;2023-08-12T02:22:00;4.88;;;2.90;;
76194;SDS011;64964;48.694;21.206;2023-08-12T02:24:26;3.72;;;2.60;;
76194;SDS011;64964;48.694;21.206;2023-08-12T02:26:52;2.90;;;2.60;;
76194;SDS011;64964;48.694;21.206;2023-08-12T02:29:17;3.00;;;2.63;;
76194;SDS011;64964;48.694;21.206;2023-08-12T02:31:42;2.80;;;2.30;;
76194;SDS011;64964;48.694;21.206;2023-08-12T02:34:08;3.47;;;2.80;;
76194;SDS011;64964;48.694;21.206;2023-08-12T02:36:33;4.23;;;2.77;;
76194;SDS011;64964;48.694;21.206;2023-08-12T02:38:58;4.53;;;2.40;;
76194;SDS011;64964;48.694;21.206;2023-08-12T02:41:24;7.80;;;2.90;;
76194;SDS011;64964;48.694;21.206;2023-08-12T02:43:49;2.97;;;2.47;;
76194;SDS011;64964;48.694;21.206;2023-08-12T02:46:15;3.03;;;2.73;;
76194;SDS011;64964;48.694;21.206;2023-08-12T02:48:40;3.17;;;2.50;;
76194;SDS011;64964;48.694;21.206;2023-08-12T02:51:06;4.20;;;2.70;;
76194;SDS011;64964;48.694;21.206;2023-08-12T02:53:32;3.80;;;2.87;;
76194;SDS011;64964;48.694;21.206;2023-08-12T02:55:57;3.38;;;2.60;;
76194;SDS011;64964;48.694;21.206;2023-08-12T02:58:22;4.20;;;2.70;;
76194;SDS011;64964;48.694;21.206;2023-08-12T03:00:48;3.30;;;2.60;;
76194;SDS011;64964;48.694;21.206;2023-08-12T03:03:13;3.67;;;2.37;;
76194;SDS011;64964;48.694;21.206;2023-08-12T03:05:38;4.20;;;3.00;;
76194;SDS011;64964;48.694;21.206;2023-08-12T03:08:04;5.18;;;2.53;;
76194;SDS011;64964;48.694;21.206;2023-08-12T03:10:30;3.03;;;2.50;;
76194;SDS011;64964;48.694;21.206;2023-08-12T03:12:56;3.58;;;2.60;;
76194;SDS011;64964;48.694;21.206;2023-08-12T03:15:21;3.67;;;2.60;;
76194;SDS011;64964;48.694;21.206;2023-08-12T03:17:47;3.15;;;2.58;;
76194;SDS011;64964;48.694;21.206;2023-08-12T03:20:12;2.93;;;2.40;;
76194;SDS011;64964;48.694;21.206;2023-08-12T03:22:37;6.03;;;2.57;;
76194;SDS011;64964;48.694;21.206;2023-08-12T03:25:03;3.85;;;3.10;;
76194;SDS011;64964;48.694;21.206;2023-08-12T03:27:29;3.90;;;2.70;;
76194;SDS011;64964;48.694;21.206;2023-08-12T03:29:55;3.90;;;2.47;;
76194;SDS011;64964;48.694;21.206;2023-08-12T03:32:20;4.13;;;2.60;;
76194;SDS011;64964;48.694;21.206;2023-08-12T03:34:46;4.97;;;2.77;;
76194;SDS011;64964;48.694;21.206;2023-08-12T03:37:11;5.28;;;2.85;;
76194;SDS011;64964;48.694;21.206;2023-08-12T03:39:37;3.23;;;2.90;;
76194;SDS011;64964;48.694;21.206;2023-08-12T03:42:02;4.57;;;2.87;;
76194;SDS011;64964;48.694;21.206;2023-08-12T03:44:27;3.27;;;2.63;;
76194;SDS011;64964;48.694;21.206;2023-08-12T03:46:53;2.90;;;2.60;;
76194;SDS011;64964;48.694;21.206;2023-08-12T03:49:18;5.93;;;2.90;;
76194;SDS011;64964;48.694;21.206;2023-08-12T03:51:43;6.50;;;3.30;;
76194;SDS011;64964;48.694;21.206;2023-08-12T03:54:09;6.07;;;3.50;;
76194;SDS011;64964;48.694;21.206;2023-08-12T03:56:34;5.87;;;3.70;;
76194;SDS011;64964;48.694;21.206;2023-08-12T03:58:59;14.52;;;4.38;;
76194;SDS011;64964;48.694;21.206;2023-08-12T04:01:25;10.83;;;4.10;;
76194;SDS011;64964;48.694;21.206;2023-08-12T04:03:50;11.80;;;4.87;;
76194;SDS011;64964;48.694;21.206;2023-08-12T04:06:16;10.27;;;4.60;;
76194;SDS011;64964;48.694;21.206;2023-08-12T04:08:41;10.05;;;4.35;;
76194;SDS011;64964;48.694;21.206;2023-08-12T04:11:06;11.37;;;4.83;;
76194;SDS011;64964;48.694;21.206;2023-08-12T04:13:32;12.00;;;4.57;;
76194;SDS011;64964;48.694;21.206;2023-08-12T04:15:57;7.57;;;4.20;;
76194;SDS011;64964;48.694;21.206;2023-08-12T04:18:23;10.67;;;4.40;;
76194;SDS011;64964;48.694;21.206;2023-08-12T04:20:48;8.30;;;3.80;;
76194;SDS011;64964;48.694;21.206;2023-08-12T04:23:15;6.53;;;3.13;;
76194;SDS011;64964;48.694;21.206;2023-08-12T04:25:45;6.45;;;3.38;;
76194;SDS011;64964;48.694;21.206;2023-08-12T04:28:12;8.90;;;3.50;;
76194;SDS011;64964;48.694;21.206;2023-08-12T04:30:44;14.43;;;4.07;;
76194;SDS011;64964;48.694;21.206;2023-08-12T04:33:11;4.65;;;3.05;;
76194;SDS011;64964;48.694;21.206;2023-08-12T04:35:38;5.10;;;2.90;;
76194;SDS011;64964;48.694;21.206;2023-08-12T04:38:04;6.13;;;3.35;;
76194;SDS011;64964;48.694;21.206;2023-08-12T04:40:29;5.33;;;3.10;;
76194;SDS011;64964;48.694;21.206;2023-08-12T04:42:54;3.70;;;2.92;;
76194;SDS011;64964;48.694;21.206;2023-08-12T04:45:20;5.53;;;3.00;;
76194;SDS011;64964;48.694;21.206;2023-08-12T04:47:45;5.40;;;2.63;;
76194;SDS011;64964;48.694;21.206;2023-08-12T04:50:11;6.23;;;3.00;;
76194;SDS011;64964;48.694;21.206;2023-08-12T04:52:36;3.80;;;2.45;;
76194;SDS011;64964;48.694;21.206;2023-08-12T04:55:01;4.57;;;2.63;;
76194;SDS011;64964;48.694;21.206;2023-08-12T04:57:28;3.75;;;2.67;;
76194;SDS011;64964;48.694;21.206;2023-08-12T04:59:53;6.63;;;3.13;;
76194;SDS011;64964;48.694;21.206;2023-08-12T05:02:20;4.47;;;2.70;;
76194;SDS011;64964;48.694;21.206;2023-08-12T05:04:49;4.50;;;2.80;;
76194;SDS011;64964;48.694;21.206;2023-08-12T05:07:16;5.15;;;2.50;;
76194;SDS011;64964;48.694;21.206;2023-08-12T05:09:42;3.63;;;2.30;;
76194;SDS011;64964;48.694;21.206;2023-08-12T05:12:11;4.13;;;2.47;;
76194;SDS011;64964;48.694;21.206;2023-08-12T05:14:37;3.73;;;2.70;;
76194;SDS011;64964;48.694;21.206;2023-08-12T05:17:04;3.38;;;2.30;;
76194;SDS011;64964;48.694;21.206;2023-08-12T05:19:30;4.90;;;2.28;;
76194;SDS011;64964;48.694;21.206;2023-08-12T05:21:56;3.47;;;2.23;;
76194;SDS011;64964;48.694;21.206;2023-08-12T05:24:21;4.60;;;2.60;;
76194;SDS011;64964;48.694;21.206;2023-08-12T05:26:47;3.07;;;2.17;;
76194;SDS011;64964;48.694;21.206;2023-08-12T05:29:12;3.73;;;2.20;;
76194;SDS011;64964;48.694;21.206;2023-08-12T05:31:37;3.00;;;2.37;;
76194;SDS011;64964;48.694;21.206;2023-08-12T05:34:03;3.80;;;2.37;;
76194;SDS011;64964;48.694;21.206;2023-08-12T05:36:29;3.28;;;2.28;;
76194;SDS011;64964;48.694;21.206;2023-08-12T05:38:54;3.60;;;2.20;;
76194;SDS011;64964;48.694;21.206;2023-08-12T05:41:20;3.60;;;2.20;;
76194;SDS011;64964;48.694;21.206;2023-08-12T05:43:45;2.53;;;2.17;;
76194;SDS011;64964;48.694;21.206;2023-08-12T05:46:12;2.97;;;2.10;;
76194;SDS011;64964;48.694;21.206;2023-08-12T05:48:37;2.30;;;2.10;;
76194;SDS011;64964;48.694;21.206;2023-08-12T05:51:03;5.40;;;2.33;;
76194;SDS011;64964;48.694;21.206;2023-08-12T05:53:28;3.33;;;2.00;;
76194;SDS011;64964;48.694;21.206;2023-08-12T05:55:53;4.33;;;2.20;;
76194;SDS011;64964;48.694;21.206;2023-08-12T05:58:19;3.93;;;2.03;;
76194;SDS011;64964;48.694;21.206;2023-08-12T06:00:45;3.72;;;2.00;;
76194;SDS011;64964;48.694;21.206;2023-08-12T06:03:11;4.70;;;2.20;;
76194;SDS011;64964;48.694;21.206;2023-08-12T06:05:37;4.53;;;2.28;;
76194;SDS011;64964;48.694;21.206;2023-08-12T06:08:02;4.15;;;2.40;;
76194;SDS011;64964;48.694;21.206;2023-08-12T06:10:28;3.43;;;2.37;;
76194;SDS011;64964;48.694;21.206;2023-08-12T06:12:53;2.80;;;2.20;;
76194;SDS011;64964;48.694;21.206;2023-08-12T06:15:18;3.23;;;2.70;;
76194;SDS011;64964;48.694;21.206;2023-08-12T06:17:44;4.55;;;2.55;;
76194;SDS011;64964;48.694;21.206;2023-08-12T06:20:10;3.47;;;2.67;;
76194;SDS011;64964;48.694;21.206;2023-08-12T06:22:36;4.80;;;2.60;;
76194;SDS011;64964;48.694;21.206;2023-08-12T06:25:02;3.92;;;2.60;;
76194;SDS011;64964;48.694;21.206;2023-08-12T06:27:27;4.40;;;2.60;;
76194;SDS011;64964;48.694;21.206;2023-08-12T06:29:52;3.77;;;2.47;;
76194;SDS011;64964;48.694;21.206;2023-08-12T06:32:18;8.80;;;2.70;;
76194;SDS011;64964;48.694;21.206;2023-08-12T06:34:43;3.30;;;2.60;;
76194;SDS011;64964;48.694;21.206;2023-08-12T06:37:08;4.00;;;2.40;;
76194;SDS011;64964;48.694;21.206;2023-08-12T06:39:34;3.50;;;2.60;;
76194;SDS011;64964;48.694;21.206;2023-08-12T06:41:59;5.30;;;2.90;;
76194;SDS011;64964;48.694;21.206;2023-08-12T06:44:24;4.80;;;2.80;;
76194;SDS011;64964;48.694;21.206;2023-08-12T06:46:50;4.30;;;2.87;;
76194;SDS011;64964;48.694;21.206;2023-08-12T06:49:15;8.30;;;3.40;;
76194;SDS011;64964;48.694;21.206;2023-08-12T06:51:41;5.20;;;2.90;;
76194;SDS011;64964;48.694;21.206;2023-08-12T06:54:06;6.97;;;3.27;;
76194;SDS011;64964;48.694;21.206;2023-08-12T06:56:32;6.90;;;3.10;;
76194;SDS011;64964;48.694;21.206;2023-08-12T06:58:57;3.53;;;3.10;;
76194;SDS011;64964;48.694;21.206;2023-08-12T07:01:22;6.93;;;3.40;;
76194;SDS011;64964;48.694;21.206;2023-08-12T07:03:48;5.43;;;3.17;;
76194;SDS011;64964;48.694;21.206;2023-08-12T07:06:13;6.03;;;2.83;;
76194;SDS011;64964;48.694;21.206;2023-08-12T07:08:38;4.90;;;2.90;;
76194;SDS011;64964;48.694;21.206;2023-08-12T07:11:04;5.13;;;2.93;;
76194;SDS011;64964;48.694;21.206;2023-08-12T07:13:29;6.70;;;3.00;;
76194;SDS011;64964;48.694;21.206;2023-08-12T07:15:55;7.43;;;2.90;;
76194;SDS011;64964;48.694;21.206;2023-08-12T07:18:20;4.10;;;2.83;;
76194;SDS011;64964;48.694;21.206;2023-08-12T07:20:47;5.32;;;3.00;;
76194;SDS011;64964;48.694;21.206;2023-08-12T07:23:13;3.60;;;2.80;;
76194;SDS011;64964;48.694;21.206;2023-08-12T07:25:38;5.23;;;3.00;;
76194;SDS011;64964;48.694;21.206;2023-08-12T07:28:05;5.17;;;3.00;;
76194;SDS011;64964;48.694;21.206;2023-08-12T07:30:30;4.00;;;2.88;;
76194;SDS011;64964;48.694;21.206;2023-08-12T07:32:56;4.60;;;2.83;;
76194;SDS011;64964;48.694;21.206;2023-08-12T07:35:21;5.20;;;2.77;;
76194;SDS011;64964;48.694;21.206;2023-08-12T07:37:46;5.30;;;2.67;;
76194;SDS011;64964;48.694;21.206;2023-08-12T07:40:12;5.37;;;2.70;;
76194;SDS011;64964;48.694;21.206;2023-08-12T07:42:37;4.67;;;3.03;;
76194;SDS011;64964;48.694;21.206;2023-08-12T07:45:03;5.20;;;3.40;;
76194;SDS011;64964;48.694;21.206;2023-08-12T07:47:29;4.97;;;3.40;;
76194;SDS011;64964;48.694;21.206;2023-08-12T07:49:54;7.50;;;3.38;;
76194;SDS011;64964;48.694;21.206;2023-08-12T07:52:19;6.37;;;3.03;;
76194;SDS011;64964;48.694;21.206;2023-08-12T07:54:45;4.90;;;3.07;;
76194;SDS011;64964;48.694;21.206;2023-08-12T07:57:10;5.43;;;3.00;;
76194;SDS011;64964;48.694;21.206;2023-08-12T07:59:36;5.07;;;3.20;;
76194;SDS011;64964;48.694;21.206;2023-08-12T08:02:01;5.43;;;3.17;;
76194;SDS011;64964;48.694;21.206;2023-08-12T08:04:26;4.93;;;2.90;;
76194;SDS011;64964;48.694;21.206;2023-08-12T08:06:52;5.83;;;3.50;;
76194;SDS011;64964;48.694;21.206;2023-08-12T08:09:17;6.93;;;3.57;;
76194;SDS011;64964;48.694;21.206;2023-08-12T08:11:43;8.00;;;3.67;;
76194;SDS011;64964;48.694;21.206;2023-08-12T08:14:08;5.90;;;3.10;;
76194;SDS011;64964;48.694;21.206;2023-08-12T08:16:33;5.67;;;3.40;;
76194;SDS011;64964;48.694;21.206;2023-08-12T08:18:59;5.93;;;3.50;;
76194;SDS011;64964;48.694;21.206;2023-08-12T08:21:24;6.97;;;3.50;;
76194;SDS011;64964;48.694;21.206;2023-08-12T08:23:50;8.40;;;3.60;;
76194;SDS011;64964;48.694;21.206;2023-08-12T08:26:15;9.80;;;4.00;;
76194;SDS011;64964;48.694;21.206;2023-08-12T08:28:41;7.50;;;3.87;;
76194;SDS011;64964;48.694;21.206;2023-08-12T08:31:07;13.18;;;4.70;;
76194;SDS011;64964;48.694;21.206;2023-08-12T08:33:32;16.60;;;6.10;;
76194;SDS011;64964;48.694;21.206;2023-08-12T08:35:58;18.92;;;6.57;;
76194;SDS011;64964;48.694;21.206;2023-08-12T08:38:23;23.23;;;8.13;;
76194;SDS011;64964;48.694;21.206;2023-08-12T08:40:49;24.33;;;9.40;;
76194;SDS011;64964;48.694;21.206;2023-08-12T08:43:15;25.35;;;9.48;;
76194;SDS011;64964;48.694;21.206;2023-08-12T08:45:47;30.05;;;10.90;;
76194;SDS011;64964;48.694;21.206;2023-08-12T08:48:17;32.10;;;11.70;;
76194;SDS011;64964;48.694;21.206;2023-08-12T08:50:45;29.30;;;10.30;;
76194;SDS011;64964;48.694;21.206;2023-08-12T08:53:11;24.50;;;8.70;;
76194;SDS011;64964;48.694;21.206;2023-08-12T08:55:38;22.20;;;9.35;;
76194;SDS011;64964;48.694;21.206;2023-08-12T08:58:05;21.17;;;9.10;;
76194;SDS011;64964;48.694;21.206;2023-08-12T09:00:30;15.98;;;7.13;;
76194;SDS011;64964;48.694;21.206;2023-08-12T09:02:56;23.13;;;8.67;;
76194;SDS011;64964;48.694;21.206;2023-08-12T09:05:22;14.43;;;7.18;;
76194;SDS011;64964;48.694;21.206;2023-08-12T09:07:50;15.20;;;6.40;;
76194;SDS011;64964;48.694;21.206;2023-08-12T09:10:17;17.73;;;6.63;;
76194;SDS011;64964;48.694;21.206;2023-08-12T09:12:45;11.27;;;5.65;;
76194;SDS011;64964;48.694;21.206;2023-08-12T09:15:11;8.30;;;4.63;;
76194;SDS011;64964;48.694;21.206;2023-08-12T09:17:37;6.73;;;3.80;;
76194;SDS011;64964;48.694;21.206;2023-08-12T09:20:03;5.18;;;3.30;;
76194;SDS011;64964;48.694;21.206;2023-08-12T09:22:36;5.72;;;3.47;;
76194;SDS011;64964;48.694;21.206;2023-08-12T09:25:01;5.90;;;3.50;;
76194;SDS011;64964;48.694;21.206;2023-08-12T09:27:30;3.88;;;2.65;;
76194;SDS011;64964;48.694;21.206;2023-08-12T09:29:56;4.97;;;2.85;;
76194;SDS011;64964;48.694;21.206;2023-08-12T09:32:22;5.18;;;2.85;;
76194;SDS011;64964;48.694;21.206;2023-08-12T09:34:49;4.30;;;2.60;;
76194;SDS011;64964;48.694;21.206;2023-08-12T09:37:20;4.38;;;2.70;;
76194;SDS011;64964;48.694;21.206;2023-08-12T09:39:47;5.57;;;2.50;;
76194;SDS011;64964;48.694;21.206;2023-08-12T09:42:13;4.50;;;2.40;;
76194;SDS011;64964;48.694;21.206;2023-08-12T09:44:40;5.88;;;2.72;;
76194;SDS011;64964;48.694;21.206;2023-08-12T09:47:06;3.83;;;2.40;;
76194;SDS011;64964;48.694;21.206;2023-08-12T09:49:33;3.10;;;2.30;;
76194;SDS011;64964;48.694;21.206;2023-08-12T09:52:00;3.50;;;2.28;;
76194;SDS011;64964;48.694;21.206;2023-08-12T09:54:32;3.75;;;2.40;;
76194;SDS011;64964;48.694;21.206;2023-08-12T09:56:59;2.92;;;2.22;;
76194;SDS011;64964;48.694;21.206;2023-08-12T09:59:30;3.17;;;2.60;;
76194;SDS011;64964;48.694;21.206;2023-08-12T10:02:00;2.50;;;2.17;;
76194;SDS011;64964;48.694;21.206;2023-08-12T10:04:31;3.30;;;2.27;;
76194;SDS011;64964;48.694;21.206;2023-08-12T10:07:00;2.90;;;2.37;;
76194;SDS011;64964;48.694;21.206;2023-08-12T10:09:27;3.47;;;2.00;;
76194;SDS011;64964;48.694;21.206;2023-08-12T10:11:52;2.40;;;2.17;;
76194;SDS011;64964;48.694;21.206;2023-08-12T10:14:18;3.77;;;2.97;;
76194;SDS011;64964;48.694;21.206;2023-08-12T10:16:45;3.03;;;2.25;;
76194;SDS011;64964;48.694;21.206;2023-08-12T10:19:12;4.90;;;2.95;;
76194;SDS011;64964;48.694;21.206;2023-08-12T10:21:37;3.33;;;2.77;;
76194;SDS011;64964;48.694;21.206;2023-08-12T10:24:03;3.90;;;2.30;;
76194;SDS011;64964;48.694;21.206;2023-08-12T10:26:30;3.92;;;2.38;;
76194;SDS011;64964;48.694;21.206;2023-08-12T10:28:57;5.80;;;3.22;;
76194;SDS011;64964;48.694;21.206;2023-08-12T10:31:26;3.28;;;2.42;;
76194;SDS011;64964;48.694;21.206;2023-08-12T10:33:52;5.82;;;2.70;;
76194;SDS011;64964;48.694;21.206;2023-08-12T10:36:18;4.27;;;2.77;;
76194;SDS011;64964;48.694;21.206;2023-08-12T10:38:44;5.82;;;3.30;;
76194;SDS011;64964;48.694;21.206;2023-08-12T10:41:22;4.57;;;2.57;;
76194;SDS011;64964;48.694;21.206;2023-08-12T10:43:49;4.05;;;2.88;;
76194;SDS011;64964;48.694;21.206;2023-08-12T10:46:30;5.05;;;2.80;;
76194;SDS011;64964;48.694;21.206;2023-08-12T10:49:09;8.45;;;3.65;;
76194;SDS011;64964;48.694;21.206;2023-08-12T10:54:23;7.60;;;3.35;;
76194;SDS011;64964;48.694;21.206;2023-08-12T10:59:50;11.82;;;5.55;;
76194;SDS011;64964;48.694;21.206;2023-08-12T11:04:48;5.07;;;2.90;;
76194;SDS011;64964;48.694;21.206;2023-08-12T11:07:18;4.73;;;2.80;;
76194;SDS011;64964;48.694;21.206;2023-08-12T11:09:45;3.58;;;2.60;;
76194;SDS011;64964;48.694;21.206;2023-08-12T11:12:17;4.10;;;2.88;;
76194;SDS011;64964;48.694;21.206;2023-08-12T11:14:47;4.07;;;2.38;;
76194;SDS011;64964;48.694;21.206;2023-08-12T11:17:14;3.33;;;2.70;;
76194;SDS011;64964;48.694;21.206;2023-08-12T11:19:41;2.67;;;2.30;;
76194;SDS011;64964;48.694;21.206;2023-08-12T11:22:07;2.58;;;2.38;;
76194;SDS011;64964;48.694;21.206;2023-08-12T11:24:33;3.57;;;2.80;;
76194;SDS011;64964;48.694;21.206;2023-08-12T11:26:59;2.45;;;2.20;;
76194;SDS011;64964;48.694;21.206;2023-08-12T11:29:25;3.75;;;2.60;;
76194;SDS011;64964;48.694;21.206;2023-08-12T11:31:50;2.90;;;2.40;;
76194;SDS011;64964;48.694;21.206;2023-08-12T11:34:16;4.35;;;2.20;;
76194;SDS011;64964;48.694;21.206;2023-08-12T11:36:41;3.80;;;2.40;;
76194;SDS011;64964;48.694;21.206;2023-08-12T11:39:07;3.70;;;2.60;;
76194;SDS011;64964;48.694;21.206;2023-08-12T11:41:35;4.07;;;2.60;;
76194;SDS011;64964;48.694;21.206;2023-08-12T11:44:01;2.72;;;2.40;;
76194;SDS011;64964;48.694;21.206;2023-08-12T11:46:26;2.78;;;2.50;;
76194;SDS011;64964;48.694;21.206;2023-08-12T11:48:51;4.87;;;2.50;;
76194;SDS011;64964;48.694;21.206;2023-08-12T11:51:17;2.60;;;2.40;;
76194;SDS011;64964;48.694;21.206;2023-08-12T11:53:43;3.40;;;2.40;;
76194;SDS011;64964;48.694;21.206;2023-08-12T11:56:09;5.10;;;2.70;;
76194;SDS011;64964;48.694;21.206;2023-08-12T11:58:35;3.93;;;2.50;;
76194;SDS011;64964;48.694;21.206;2023-08-12T12:01:02;3.05;;;2.60;;
76194;SDS011;64964;48.694;21.206;2023-08-12T12:03:27;6.25;;;2.80;;
76194;SDS011;64964;48.694;21.206;2023-08-12T12:05:55;2.43;;;2.23;;
76194;SDS011;64964;48.694;21.206;2023-08-12T12:08:21;2.80;;;2.30;;
76194;SDS011;64964;48.694;21.206;2023-08-12T12:10:46;2.67;;;2.30;;
76194;SDS011;64964;48.694;21.206;2023-08-12T12:13:12;3.17;;;2.20;;
76194;SDS011;64964;48.694;21.206;2023-08-12T12:15:42;3.40;;;2.40;;
76194;SDS011;64964;48.694;21.206;2023-08-12T12:18:12;3.95;;;2.75;;
76194;SDS011;64964;48.694;21.206;2023-08-12T12:20:56;3.25;;;2.50;;
76194;SDS011;64964;48.694;21.206;2023-08-12T12:23:26;3.88;;;3.22;;
76194;SDS011;64964;48.694;21.206;2023-08-12T12:25:59;3.25;;;2.42;;
76194;SDS011;64964;48.694;21.206;2023-08-12T12:28:28;3.65;;;2.50;;
76194;SDS011;64964;48.694;21.206;2023-08-12T12:30:54;5.88;;;2.92;;
76194;SDS011;64964;48.694;21.206;2023-08-12T12:33:20;2.63;;;2.43;;
76194;SDS011;64964;48.694;21.206;2023-08-12T12:35:45;3.35;;;2.42;;
76194;SDS011;64964;48.694;21.206;2023-08-12T12:38:11;2.87;;;2.57;;
76194;SDS011;64964;48.694;21.206;2023-08-12T12:40:36;5.80;;;3.50;;
76194;SDS011;64964;48.694;21.206;2023-08-12T12:43:03;4.20;;;2.90;;
76194;SDS011;64964;48.694;21.206;2023-08-12T12:45:28;3.80;;;2.90;;
76194;SDS011;64964;48.694;21.206;2023-08-12T12:47:54;3.05;;;2.25;;
76194;SDS011;64964;48.694;21.206;2023-08-12T12:50:19;3.90;;;2.40;;
76194;SDS011;64964;48.694;21.206;2023-08-12T12:52:44;2.87;;;2.40;;
76194;SDS011;64964;48.694;21.206;2023-08-12T12:55:10;4.90;;;2.80;;
76194;SDS011;64964;48.694;21.206;2023-08-12T12:57:35;3.75;;;2.88;;
76194;SDS011;64964;48.694;21.206;2023-08-12T13:00:01;4.57;;;2.70;;
76194;SDS011;64964;48.694;21.206;2023-08-12T13:02:26;4.33;;;2.53;;
76194;SDS011;64964;48.694;21.206;2023-08-12T13:04:52;7.43;;;5.60;;
76194;SDS011;64964;48.694;21.206;2023-08-12T13:07:17;4.53;;;3.70;;
76194;SDS011;64964;48.694;21.206;2023-08-12T13:09:43;4.30;;;2.60;;
76194;SDS011;64964;48.694;21.206;2023-08-12T13:12:08;2.65;;;2.42;;
76194;SDS011;64964;48.694;21.206;2023-08-12T13:14:33;4.37;;;2.50;;
76194;SDS011;64964;48.694;21.206;2023-08-12T13:16:59;2.60;;;2.40;;
76194;SDS011;64964;48.694;21.206;2023-08-12T13:19:24;3.13;;;2.40;;
76194;SDS011;64964;48.694;21.206;2023-08-12T13:21:50;2.90;;;2.50;;
76194;SDS011;64964;48.694;21.206;2023-08-12T13:24:15;4.17;;;2.80;;
76194;SDS011;64964;48.694;21.206;2023-08-12T13:26:40;3.60;;;2.30;;
76194;SDS011;64964;48.694;21.206;2023-08-12T13:29:06;3.80;;;3.40;;
76194;SDS011;64964;48.694;21.206;2023-08-12T13:31:31;2.88;;;2.58;;
76194;SDS011;64964;48.694;21.206;2023-08-12T13:33:57;5.90;;;2.57;;
76194;SDS011;64964;48.694;21.206;2023-08-12T13:36:22;2.83;;;2.30;;
76194;SDS011;64964;48.694;21.206;2023-08-12T13:38:48;4.20;;;2.47;;
76194;SDS011;64964;48.694;21.206;2023-08-12T13:41:13;3.95;;;2.78;;
76194;SDS011;64964;48.694;21.206;2023-08-12T13:43:38;5.07;;;2.77;;
76194;SDS011;64964;48.694;21.206;2023-08-12T13:46:04;4.10;;;2.80;;
76194;SDS011;64964;48.694;21.206;2023-08-12T13:48:29;5.22;;;2.38;;
76194;SDS011;64964;48.694;21.206;2023-08-12T13:50:55;3.63;;;2.57;;
76194;SDS011;64964;48.694;21.206;2023-08-12T13:53:21;6.82;;;3.08;;
76194;SDS011;64964;48.694;21.206;2023-08-12T13:55:46;4.80;;;3.10;;
76194;SDS011;64964;48.694;21.206;2023-08-12T13:58:12;3.27;;;2.83;;
76194;SDS011;64964;48.694;21.206;2023-08-12T14:00:37;2.97;;;2.43;;
76194;SDS011;64964;48.694;21.206;2023-08-12T14:03:02;3.87;;;2.63;;
76194;SDS011;64964;48.694;21.206;2023-08-12T14:05:29;2.88;;;2.60;;
76194;SDS011;64964;48.694;21.206;2023-08-12T14:07:54;3.00;;;2.67;;
76194;SDS011;64964;48.694;21.206;2023-08-12T14:10:19;5.33;;;2.83;;
76194;SDS011;64964;48.694;21.206;2023-08-12T14:12:45;4.00;;;3.10;;
76194;SDS011;64964;48.694;21.206;2023-08-12T14:15:13;6.47;;;3.50;;
76194;SDS011;64964;48.694;21.206;2023-08-12T14:17:38;2.63;;;2.40;;
76194;SDS011;64964;48.694;21.206;2023-08-12T14:20:04;4.37;;;2.53;;
76194;SDS011;64964;48.694;21.206;2023-08-12T14:22:33;5.95;;;3.45;;
76194;SDS011;64964;48.694;21.206;2023-08-12T14:24:59;3.50;;;2.60;;
76194;SDS011;64964;48.694;21.206;2023-08-12T14:27:24;3.10;;;2.40;;
76194;SDS011;64964;48.694;21.206;2023-08-12T14:29:49;2.80;;;2.50;;
76194;SDS011;64964;48.694;21.206;2023-08-12T14:32:15;3.73;;;2.57;;
76194;SDS011;64964;48.694;21.206;2023-08-12T14:34:41;5.53;;;2.50;;
76194;SDS011;64964;48.694;21.206;2023-08-12T14:37:10;4.70;;;2.60;;
76194;SDS011;64964;48.694;21.206;2023-08-12T14:39:36;5.30;;;2.90;;
76194;SDS011;64964;48.694;21.206;2023-08-12T14:42:01;4.03;;;2.80;;
76194;SDS011;64964;48.694;21.206;2023-08-12T14:44:28;3.83;;;2.70;;